createdAt,value
2018-08-23T00:01:35.612Z,32.47
2018-08-23T00:04:05.961Z,32.50
2018-08-23T00:06:34.894Z,31.93
2018-08-23T00:09:03.759Z,33.23
2018-08-23T00:11:36.537Z,31.67
2018-08-23T00:14:05.086Z,29.90
2018-08-23T00:16:40.529Z,32.83
2018-08-23T00:19:09.057Z,33.57
2018-08-23T00:21:44.729Z,30.33
2018-08-23T00:24:15.801Z,34.30
2018-08-23T00:26:49.285Z,31.30
2018-08-23T00:29:23.042Z,31.53
2018-08-23T00:31:53.551Z,31.83
2018-08-23T00:34:25.738Z,29.87
2018-08-23T00:36:54.818Z,32.47
2018-08-23T00:39:23.397Z,31.93
2018-08-23T00:41:57.265Z,29.53
2018-08-23T00:44:25.784Z,31.07
2018-08-23T00:46:56.549Z,32.10
2018-08-23T00:49:32.149Z,31.60
2018-08-23T00:52:00.650Z,30.97
2018-08-23T00:54:29.169Z,29.73
2018-08-23T00:56:57.635Z,31.00
2018-08-23T00:59:26.108Z,32.57
2018-08-23T01:02:11.142Z,32.87
2018-08-23T01:04:45.565Z,31.40
2018-08-23T01:07:16.966Z,31.87
2018-08-23T01:09:45.770Z,33.97
2018-08-23T01:12:14.309Z,32.23
2018-08-23T01:14:42.892Z,32.20
2018-08-23T01:17:16.410Z,32.77
2018-08-23T01:19:50.208Z,34.43
2018-08-23T01:22:18.778Z,33.73
2018-08-23T01:24:49.405Z,33.23
2018-08-23T01:27:23.550Z,34.47
2018-08-23T01:29:52.169Z,35.03
2018-08-23T01:32:26.021Z,32.50
2018-08-23T01:34:54.486Z,30.60
2018-08-23T01:37:34.957Z,31.57
2018-08-23T01:40:05.244Z,32.30
2018-08-23T01:42:35.089Z,31.43
2018-08-23T01:45:04.969Z,30.57
2018-08-23T01:48:06.853Z,28.90
2018-08-23T01:50:35.399Z,26.30
2018-08-23T01:53:03.961Z,27.97
2018-08-23T01:55:32.413Z,27.93
2018-08-23T01:58:00.949Z,27.37
2018-08-23T02:00:33.549Z,29.13
2018-08-23T02:03:02.899Z,28.90
2018-08-23T02:05:31.478Z,31.77
2018-08-23T02:07:59.954Z,29.57
2018-08-23T02:10:28.485Z,29.80
2018-08-23T02:12:58.070Z,28.77
2018-08-23T02:15:28.324Z,30.50
2018-08-23T02:17:57.825Z,27.80
2018-08-23T02:20:27.301Z,29.80
2018-08-23T02:22:56.368Z,29.43
2018-08-23T02:25:25.265Z,25.97
2018-08-23T02:28:03.430Z,30.20
2018-08-23T02:30:52.993Z,28.90
2018-08-23T02:33:21.549Z,27.80
2018-08-23T02:36:06.525Z,28.13
2018-08-23T02:38:36.165Z,26.10
2018-08-23T02:41:04.722Z,28.00
2018-08-23T02:43:33.246Z,28.33
2018-08-23T02:46:03.094Z,26.80
2018-08-23T02:48:31.666Z,25.63
2018-08-23T02:51:01.030Z,27.03
2018-08-23T02:53:43.797Z,26.13
2018-08-23T02:56:15.392Z,26.70
2018-08-23T02:58:59.947Z,25.93
2018-08-23T03:01:30.425Z,25.80
2018-08-23T03:04:13.119Z,25.20
2018-08-23T03:07:13.073Z,24.87
2018-08-23T03:09:45.434Z,26.43
2018-08-23T03:12:16.741Z,27.30
2018-08-23T03:14:45.265Z,27.40
2018-08-23T03:18:24.928Z,27.50
2018-08-23T03:21:04.475Z,26.90
2018-08-23T03:23:33.015Z,26.50
2018-08-23T03:26:01.558Z,26.50
2018-08-23T03:28:31.763Z,26.23
2018-08-23T03:31:00.673Z,28.53
2018-08-23T03:33:30.772Z,25.50
2018-08-23T03:35:59.386Z,26.00
2018-08-23T03:38:27.932Z,25.73
2018-08-23T03:40:56.710Z,26.63
2018-08-23T03:43:25.233Z,26.40
2018-08-23T03:45:55.392Z,25.40
2018-08-23T03:48:23.903Z,26.20
2018-08-23T03:50:53.471Z,27.33
2018-08-23T03:53:22.924Z,27.00
2018-08-23T03:56:06.620Z,32.77
2018-08-23T03:58:35.492Z,29.13
2018-08-23T04:01:05.259Z,29.40
2018-08-23T04:03:33.790Z,28.37
2018-08-23T04:06:17.388Z,30.27
2018-08-23T04:08:47.164Z,32.73
2018-08-23T04:11:16.258Z,31.30
2018-08-23T04:13:45.906Z,29.10
2018-08-23T04:16:14.469Z,33.40
2018-08-23T04:18:43.038Z,32.50
2018-08-23T04:21:11.526Z,29.93
2018-08-23T04:23:39.993Z,29.80
2018-08-23T04:26:08.569Z,28.20
2018-08-23T04:28:37.114Z,29.97
2018-08-23T04:31:05.674Z,30.10
2018-08-23T04:33:34.189Z,35.57
2018-08-23T04:36:02.808Z,33.70
2018-08-23T04:38:31.329Z,33.60
2018-08-23T04:41:08.962Z,33.73
2018-08-23T04:43:37.511Z,32.43
2018-08-23T04:46:10.158Z,31.17
2018-08-23T04:48:38.759Z,31.03
2018-08-23T04:51:07.275Z,32.43
2018-08-23T04:53:35.810Z,28.73
2018-08-23T04:56:04.775Z,32.80
2018-08-23T04:58:33.310Z,31.63
2018-08-23T05:01:01.784Z,31.70
2018-08-23T05:03:30.303Z,34.23
2018-08-23T05:05:58.817Z,32.90
2018-08-23T05:08:27.317Z,31.53
2018-08-23T05:10:55.877Z,38.50
2018-08-23T05:13:24.399Z,40.10
2018-08-23T05:15:52.943Z,35.60
2018-08-23T05:18:21.541Z,37.37
2018-08-23T05:20:50.326Z,40.63
2018-08-23T05:23:20.309Z,40.90
2018-08-23T05:25:48.794Z,41.50
2018-08-23T05:28:19.573Z,45.00
2018-08-23T05:30:49.113Z,43.47
2018-08-23T05:33:21.610Z,49.23
2018-08-23T05:35:50.437Z,55.30
2018-08-23T05:38:19.915Z,52.27
2018-08-23T05:41:02.400Z,50.00
2018-08-23T05:43:30.877Z,45.90
2018-08-23T05:45:59.464Z,46.10
2018-08-23T05:48:31.104Z,45.20
2018-08-23T05:51:04.723Z,44.07
2018-08-23T05:53:33.329Z,44.17
2018-08-23T05:56:02.536Z,41.50
2018-08-23T05:58:32.450Z,43.30
2018-08-23T06:01:01.477Z,41.97
2018-08-23T06:03:31.302Z,42.40
2018-08-23T06:05:59.847Z,40.63
2018-08-23T06:08:28.353Z,40.10
2018-08-23T06:11:03.457Z,38.93
2018-08-23T06:13:32.019Z,39.33
2018-08-23T06:16:01.104Z,38.83
2018-08-23T06:18:29.643Z,37.10
2018-08-23T06:20:58.141Z,38.27
2018-08-23T06:23:32.686Z,37.93
2018-08-23T06:26:01.210Z,36.50
2018-08-23T06:28:29.700Z,38.10
2018-08-23T06:30:59.359Z,36.40
2018-08-23T06:33:36.747Z,33.50
2018-08-23T06:36:05.583Z,35.60
2018-08-23T06:38:35.769Z,35.40
2018-08-23T06:41:05.786Z,36.80
2018-08-23T06:43:34.834Z,34.03
2018-08-23T06:46:03.934Z,34.40
2018-08-23T06:48:32.762Z,36.47
2018-08-23T06:51:02.221Z,32.60
2018-08-23T06:53:39.709Z,36.57
2018-08-23T06:56:08.483Z,36.90
2018-08-23T06:58:37.014Z,37.53
2018-08-23T07:01:10.005Z,36.57
2018-08-23T07:03:51.137Z,37.60
2018-08-23T07:06:20.202Z,35.97
2018-08-23T07:08:48.750Z,38.20
2018-08-23T07:11:22.553Z,36.53
2018-08-23T07:13:57.842Z,37.43
2018-08-23T07:16:26.891Z,37.57
2018-08-23T07:18:55.970Z,38.00
2018-08-23T07:21:24.690Z,37.90
2018-08-23T07:23:53.214Z,38.80
2018-08-23T07:26:21.767Z,42.37
2018-08-23T07:28:50.373Z,41.23
2018-08-23T07:31:18.861Z,39.40
2018-08-23T07:33:51.384Z,37.20
2018-08-23T07:36:27.875Z,38.70
2018-08-23T07:38:57.065Z,37.23
2018-08-23T07:41:25.591Z,39.10
2018-08-23T07:43:54.519Z,40.93
2018-08-23T07:46:23.042Z,37.70
2018-08-23T07:48:51.604Z,39.40
2018-08-23T07:51:25.859Z,38.10
2018-08-23T07:53:57.579Z,38.50
2018-08-23T07:56:28.045Z,37.07
2018-08-23T07:58:57.586Z,35.63
2018-08-23T08:01:31.345Z,37.70
2018-08-23T08:04:00.520Z,37.07
2018-08-23T08:06:29.547Z,37.67
2018-08-23T08:09:09.197Z,36.43
2018-08-23T08:11:52.761Z,37.93
2018-08-23T08:14:26.440Z,35.30
2018-08-23T08:16:59.186Z,34.97
2018-08-23T08:19:28.494Z,37.60
2018-08-23T08:21:57.122Z,36.57
2018-08-23T08:24:25.662Z,38.27
2018-08-23T08:26:54.211Z,39.33
2018-08-23T08:29:27.948Z,36.30
2018-08-23T08:31:56.912Z,37.40
2018-08-23T08:34:26.000Z,40.00
2018-08-23T08:36:54.545Z,37.37
2018-08-23T08:39:23.125Z,39.40
2018-08-23T08:41:51.655Z,36.87
2018-08-23T08:44:20.187Z,40.87
2018-08-23T08:46:49.463Z,36.77
2018-08-23T08:49:17.963Z,37.00
2018-08-23T08:51:46.484Z,36.67
2018-08-23T08:54:14.995Z,34.70
2018-08-23T08:56:45.312Z,37.77
2018-08-23T08:59:13.814Z,36.03
2018-08-23T09:01:42.316Z,37.27
2018-08-23T09:04:14.999Z,41.80
2018-08-23T09:06:45.465Z,41.50
2018-08-23T09:09:22.899Z,40.53
2018-08-23T09:11:51.443Z,39.17
2018-08-23T09:14:20.998Z,39.87
2018-08-23T09:16:49.542Z,38.07
2018-08-23T09:19:18.377Z,39.90
2018-08-23T09:21:56.799Z,39.50
2018-08-23T09:24:27.782Z,39.60
2018-08-23T09:26:56.333Z,38.20
2018-08-23T09:29:35.974Z,36.50
2018-08-23T09:32:19.895Z,37.30
2018-08-23T09:34:48.761Z,37.47
2018-08-23T09:37:17.252Z,37.80
2018-08-23T09:39:46.907Z,36.53
2018-08-23T09:42:16.073Z,40.77
2018-08-23T09:44:58.929Z,38.00
2018-08-23T09:47:28.053Z,41.60
2018-08-23T09:49:57.258Z,39.90
2018-08-23T09:52:30.758Z,36.03
2018-08-23T09:54:59.354Z,36.90
2018-08-23T09:57:28.291Z,34.60
2018-08-23T09:59:57.450Z,35.57
2018-08-23T10:02:31.756Z,36.30
2018-08-23T10:05:04.290Z,37.53
2018-08-23T10:07:38.286Z,39.13
2018-08-23T10:10:11.980Z,38.57
2018-08-23T10:12:45.860Z,37.47
2018-08-23T10:15:19.626Z,40.40
2018-08-23T10:17:53.282Z,39.90
2018-08-23T10:20:27.033Z,38.90
2018-08-23T10:23:02.258Z,37.10
2018-08-23T10:25:40.807Z,39.20
2018-08-23T10:28:11.687Z,39.83
2018-08-23T10:30:40.804Z,40.80
2018-08-23T10:33:09.327Z,38.00
2018-08-23T10:35:38.439Z,37.23
2018-08-23T10:38:07.861Z,36.07
2018-08-23T10:40:36.345Z,37.73
2018-08-23T10:43:04.958Z,39.13
2018-08-23T10:45:33.489Z,39.70
2018-08-23T10:48:07.355Z,39.40
2018-08-23T10:50:35.876Z,38.57
2018-08-23T10:53:04.726Z,40.30
2018-08-23T10:55:33.276Z,38.17
2018-08-23T10:58:01.804Z,34.30
2018-08-23T11:00:31.278Z,29.60
2018-08-23T11:02:59.858Z,26.47
2018-08-23T11:05:28.514Z,23.43
2018-08-23T11:08:02.233Z,22.17
2018-08-23T11:10:36.416Z,23.43
2018-08-23T11:13:10.156Z,19.63
2018-08-23T11:15:38.724Z,21.40
2018-08-23T11:18:12.626Z,20.20
2018-08-23T11:20:47.238Z,21.03
2018-08-23T11:23:18.061Z,20.27
2018-08-23T11:25:46.862Z,18.60
2018-08-23T11:28:20.454Z,21.70
2018-08-23T11:30:49.308Z,20.77
2018-08-23T11:33:17.850Z,18.20
2018-08-23T11:35:46.369Z,17.67
2018-08-23T11:38:15.742Z,17.10
2018-08-23T11:40:44.322Z,17.10
2018-08-23T11:43:12.832Z,17.43
2018-08-23T11:45:41.361Z,17.03
2018-08-23T11:48:10.514Z,17.40
2018-08-23T11:50:39.086Z,17.43
2018-08-23T11:53:07.698Z,17.33
2018-08-23T11:55:36.173Z,16.50
2018-08-23T11:58:04.734Z,19.33
2018-08-23T12:00:33.221Z,18.23
2018-08-23T12:03:01.785Z,19.03
2018-08-23T12:05:30.293Z,17.63
2018-08-23T12:07:58.836Z,18.30
2018-08-23T12:10:27.369Z,18.03
2018-08-23T12:12:55.982Z,17.37
2018-08-23T12:15:34.570Z,18.63
2018-08-23T12:18:03.110Z,17.00
2018-08-23T12:20:31.658Z,17.73
2018-08-23T12:23:00.201Z,18.40
2018-08-23T12:25:28.768Z,17.47
2018-08-23T12:28:02.262Z,16.70
2018-08-23T12:30:31.506Z,16.43
2018-08-23T12:33:00.030Z,17.17
2018-08-23T12:35:28.886Z,17.40
2018-08-23T12:38:02.762Z,18.73
2018-08-23T12:40:37.298Z,16.40
2018-08-23T12:43:08.227Z,16.47
2018-08-23T12:45:40.866Z,16.77
2018-08-23T12:48:10.718Z,17.07
2018-08-23T12:50:39.588Z,16.60
2018-08-23T12:53:08.158Z,16.60
2018-08-23T12:55:36.706Z,15.60
2018-08-23T12:58:11.222Z,15.93
2018-08-23T13:00:40.879Z,16.97
2018-08-23T13:03:09.945Z,15.40
2018-08-23T13:05:39.349Z,14.63
2018-08-23T13:08:08.163Z,16.90
2018-08-23T13:10:37.146Z,17.53
2018-08-23T13:13:05.977Z,15.27
2018-08-23T13:15:34.863Z,15.80
2018-08-23T13:18:03.921Z,15.60
2018-08-23T13:20:32.477Z,15.10
2018-08-23T13:23:01.083Z,14.73
2018-08-23T13:25:29.610Z,15.10
2018-08-23T13:27:58.126Z,16.67
2018-08-23T13:30:26.698Z,15.13
2018-08-23T13:32:55.241Z,15.37
2018-08-23T13:35:24.920Z,14.90
2018-08-23T13:37:53.744Z,16.60
2018-08-23T13:40:22.279Z,15.63
2018-08-23T13:42:50.805Z,16.23
2018-08-23T13:45:19.335Z,16.23
2018-08-23T13:47:47.878Z,15.83
2018-08-23T13:50:16.446Z,17.10
2018-08-23T13:52:45.015Z,18.33
2018-08-23T13:55:13.554Z,15.53
2018-08-23T13:57:42.086Z,16.77
2018-08-23T14:00:14.771Z,15.93
2018-08-23T14:02:43.417Z,16.00
2018-08-23T14:05:11.882Z,15.30
2018-08-23T14:07:40.482Z,16.10
2018-08-23T14:10:09.001Z,15.60
2018-08-23T14:12:37.525Z,16.40
2018-08-23T14:15:06.196Z,13.97
2018-08-23T14:17:34.715Z,15.83
2018-08-23T14:20:03.227Z,15.13
2018-08-23T14:22:31.773Z,16.07
2018-08-23T14:25:00.297Z,14.43
2018-08-23T14:27:28.814Z,16.50
2018-08-23T14:29:57.342Z,14.63
2018-08-23T14:32:25.923Z,14.50
2018-08-23T14:34:54.492Z,15.17
2018-08-23T14:37:23.050Z,14.20
2018-08-23T14:39:51.702Z,13.70
2018-08-23T14:42:20.195Z,14.00
2018-08-23T14:44:48.703Z,15.50
2018-08-23T14:47:22.414Z,13.33
2018-08-23T14:49:50.963Z,14.67
2018-08-23T14:52:19.542Z,15.17
2018-08-23T14:54:48.102Z,13.30
2018-08-23T14:57:21.858Z,14.40
2018-08-23T14:59:50.421Z,14.10
2018-08-23T15:02:18.994Z,14.03
2018-08-23T15:04:48.705Z,15.43
2018-08-23T15:07:18.247Z,14.47
2018-08-23T15:09:46.851Z,14.93
2018-08-23T15:12:15.375Z,14.20
2018-08-23T15:14:43.926Z,14.13
2018-08-23T15:17:12.480Z,14.90
2018-08-23T15:19:41.259Z,14.70
2018-08-23T15:22:10.412Z,15.27
2018-08-23T15:24:39.777Z,14.17
2018-08-23T15:27:08.418Z,13.50
2018-08-23T15:29:37.266Z,14.10
2018-08-23T15:32:05.834Z,12.03
2018-08-23T15:34:34.364Z,14.17
2018-08-23T15:37:02.963Z,12.17
2018-08-23T15:39:31.474Z,12.07
2018-08-23T15:42:00.022Z,13.30
2018-08-23T15:44:29.098Z,11.90
2018-08-23T15:46:57.646Z,13.63
2018-08-23T15:49:26.190Z,13.40
2018-08-23T15:51:55.021Z,12.93
2018-08-23T15:54:23.658Z,15.70
2018-08-23T15:56:52.210Z,15.30
2018-08-23T15:59:20.920Z,13.63
2018-08-23T16:01:49.406Z,16.67
2018-08-23T16:04:17.914Z,16.10
2018-08-23T16:06:46.455Z,15.83
2018-08-23T16:09:14.963Z,14.83
2018-08-23T16:11:43.505Z,14.67
2018-08-23T16:14:12.037Z,16.63
2018-08-23T16:16:45.855Z,15.80
2018-08-23T16:19:19.698Z,15.97
2018-08-23T16:21:53.503Z,14.93
2018-08-23T16:24:22.184Z,15.37
2018-08-23T16:26:56.077Z,15.23
2018-08-23T16:29:24.594Z,14.00
2018-08-23T16:31:53.185Z,16.97
2018-08-23T16:34:21.738Z,14.93
2018-08-23T16:36:50.318Z,16.73
2018-08-23T16:39:18.894Z,16.50
2018-08-23T16:41:47.423Z,14.57
2018-08-23T16:44:15.966Z,16.30
2018-08-23T16:46:44.504Z,14.73
2018-08-23T16:49:13.054Z,15.50
2018-08-23T16:51:41.869Z,16.53
2018-08-23T16:54:10.408Z,13.20
2018-08-23T16:56:38.949Z,13.87
2018-08-23T16:59:07.557Z,13.77
2018-08-23T17:01:36.108Z,12.73
2018-08-23T17:04:04.731Z,12.63
2018-08-23T17:06:33.222Z,11.60
2018-08-23T17:09:01.756Z,11.50
2018-08-23T17:11:30.391Z,12.30
2018-08-23T17:13:58.914Z,11.47
2018-08-23T17:16:32.842Z,12.00
2018-08-23T17:19:01.447Z,10.73
2018-08-23T17:21:30.018Z,10.13
2018-08-23T17:23:58.604Z,9.50
2018-08-23T17:26:27.129Z,10.30
2018-08-23T17:28:55.686Z,10.17
2018-08-23T17:31:24.363Z,10.97
2018-08-23T17:33:52.930Z,11.37
2018-08-23T17:36:21.452Z,10.53
2018-08-23T17:38:50.343Z,9.73
2018-08-23T17:41:18.860Z,9.90
2018-08-23T17:43:47.471Z,10.00
2018-08-23T17:46:16.025Z,9.80
2018-08-23T17:48:44.594Z,10.43
2018-08-23T17:51:13.315Z,11.57
2018-08-23T17:53:41.883Z,10.53
2018-08-23T17:56:10.442Z,10.00
2018-08-23T17:58:38.971Z,11.17
2018-08-23T18:01:07.506Z,10.80
2018-08-23T18:03:36.197Z,10.70
2018-08-23T18:06:04.691Z,11.83
2018-08-23T18:08:33.224Z,10.13
2018-08-23T18:11:01.765Z,9.50
2018-08-23T18:13:30.306Z,10.10
2018-08-23T18:16:04.153Z,9.83
2018-08-23T18:18:33.028Z,9.90
2018-08-23T18:21:01.513Z,9.17
2018-08-23T18:23:29.993Z,9.60
2018-08-23T18:25:58.538Z,10.80
2018-08-23T18:28:27.042Z,10.27
2018-08-23T18:30:55.569Z,10.87
2018-08-23T18:33:24.686Z,11.10
2018-08-23T18:35:53.291Z,10.83
2018-08-23T18:38:21.852Z,12.03
2018-08-23T18:40:50.377Z,11.43
2018-08-23T18:43:18.962Z,11.60
2018-08-23T18:45:47.661Z,11.03
2018-08-23T18:48:16.282Z,11.73
2018-08-23T18:50:44.883Z,12.20
2018-08-23T18:53:13.397Z,11.00
2018-08-23T18:55:41.925Z,11.93
2018-08-23T18:58:10.477Z,11.17
2018-08-23T19:00:38.991Z,10.53
2018-08-23T19:03:07.521Z,11.30
2018-08-23T19:05:36.258Z,11.10
2018-08-23T19:08:04.797Z,11.07
2018-08-23T19:10:33.353Z,12.53
2018-08-23T19:13:01.931Z,11.17
2018-08-23T19:15:35.666Z,11.97
2018-08-23T19:18:04.226Z,12.50
2018-08-23T19:20:32.767Z,13.00
2018-08-23T19:23:01.295Z,12.77
2018-08-23T19:25:29.867Z,13.00
2018-08-23T19:27:58.434Z,13.03
2018-08-23T19:30:27.019Z,14.20
2018-08-23T19:32:55.563Z,13.37
2018-08-23T19:35:24.130Z,14.60
2018-08-23T19:37:52.635Z,14.47
2018-08-23T19:40:21.137Z,16.20
2018-08-23T19:42:49.699Z,15.20
2018-08-23T19:45:18.198Z,14.23
2018-08-23T19:47:52.116Z,14.97
2018-08-23T19:50:20.615Z,15.67
2018-08-23T19:52:49.614Z,16.50
2018-08-23T19:55:18.167Z,16.67
2018-08-23T19:57:46.722Z,16.30
2018-08-23T20:00:15.320Z,16.43
2018-08-23T20:02:43.785Z,16.83
2018-08-23T20:05:12.461Z,15.70
2018-08-23T20:07:41.073Z,16.07
2018-08-23T20:10:09.599Z,16.37
2018-08-23T20:12:38.146Z,15.70
2018-08-23T20:15:06.721Z,16.80
2018-08-23T20:17:35.226Z,16.07
2018-08-23T20:20:03.799Z,17.70
2018-08-23T20:22:32.295Z,16.17
2018-08-23T20:25:00.906Z,15.87
2018-08-23T20:27:29.379Z,17.37
2018-08-23T20:29:57.906Z,16.30
2018-08-23T20:32:26.523Z,15.43
2018-08-23T20:34:54.985Z,16.47
2018-08-23T20:37:23.569Z,14.20
2018-08-23T20:39:52.162Z,15.33
2018-08-23T20:42:20.768Z,13.90
2018-08-23T20:44:49.266Z,15.13
2018-08-23T20:47:17.786Z,14.40
2018-08-23T20:49:46.401Z,13.37
2018-08-23T20:52:14.995Z,12.10
2018-08-23T20:54:45.807Z,12.53
2018-08-23T20:57:15.301Z,10.70
2018-08-23T20:59:43.831Z,10.63
2018-08-23T21:02:12.347Z,10.27
2018-08-23T21:04:40.943Z,11.43
2018-08-23T21:07:09.365Z,11.03
2018-08-23T21:09:37.922Z,10.07
2018-08-23T21:12:06.481Z,9.90
2018-08-23T21:14:35.408Z,9.40
2018-08-23T21:17:03.921Z,8.60
2018-08-23T21:19:32.438Z,8.50
2018-08-23T21:22:00.991Z,8.20
2018-08-23T21:24:29.503Z,8.17
2018-08-23T21:26:58.059Z,7.10
2018-08-23T21:29:26.550Z,7.60
2018-08-23T21:31:55.088Z,7.20
2018-08-23T21:34:23.652Z,8.50
2018-08-23T21:36:53.002Z,8.20
2018-08-23T21:39:21.512Z,7.63
2018-08-23T21:41:49.999Z,5.83
2018-08-23T21:44:18.499Z,1.50
2018-08-23T21:46:46.973Z,1.43
2018-08-23T21:49:15.532Z,1.63
2018-08-23T21:51:44.049Z,1.00
2018-08-23T21:54:12.590Z,1.27
2018-08-23T21:56:41.142Z,1.40
2018-08-23T21:59:09.665Z,0.93
2018-08-23T22:01:38.218Z,2.10
2018-08-23T22:04:06.840Z,1.87
2018-08-23T22:06:35.398Z,2.90
2018-08-23T22:09:05.079Z,2.47
2018-08-23T22:11:33.592Z,3.90
2018-08-23T22:14:02.491Z,4.60
2018-08-23T22:16:31.013Z,4.70
2018-08-23T22:18:59.586Z,5.03
2018-08-23T22:21:28.145Z,5.57
2018-08-23T22:23:56.694Z,6.10
2018-08-23T22:26:25.283Z,5.47
2018-08-23T22:28:53.849Z,6.03
2018-08-23T22:31:22.416Z,6.13
2018-08-23T22:33:50.959Z,7.17
2018-08-23T22:36:19.486Z,6.30
2018-08-23T22:38:48.057Z,7.97
2018-08-23T22:41:16.636Z,7.37
2018-08-23T22:43:45.161Z,7.50
2018-08-23T22:46:13.715Z,7.63
2018-08-23T22:48:42.274Z,8.67
2018-08-23T22:51:10.766Z,9.97
2018-08-23T22:53:40.018Z,6.97
2018-08-23T22:56:08.585Z,7.00
2018-08-23T22:58:37.186Z,7.10
2018-08-23T23:01:05.718Z,7.67
2018-08-23T23:03:39.562Z,7.93
2018-08-23T23:06:08.023Z,6.90
2018-08-23T23:08:36.617Z,8.93
2018-08-23T23:11:05.459Z,8.33
2018-08-23T23:13:33.962Z,9.17
2018-08-23T23:16:02.474Z,8.77
2018-08-23T23:18:30.945Z,8.33
2018-08-23T23:20:59.502Z,8.57
2018-08-23T23:23:28.053Z,8.80
2018-08-23T23:25:56.685Z,8.27
2018-08-23T23:28:25.258Z,8.90
2018-08-23T23:30:53.785Z,9.07
2018-08-23T23:33:28.841Z,8.93
2018-08-23T23:35:57.367Z,8.40
2018-08-23T23:38:25.938Z,9.20
2018-08-23T23:40:54.498Z,9.03
2018-08-23T23:43:23.059Z,8.43
2018-08-23T23:45:51.600Z,9.53
2018-08-23T23:48:20.072Z,9.20
2018-08-23T23:50:48.889Z,9.60
2018-08-23T23:53:17.392Z,9.63
2018-08-23T23:55:45.880Z,9.70
2018-08-23T23:58:14.410Z,9.63
